createdAt,value
2018-08-16T00:00:37.538Z,9.63
2018-08-16T00:03:08.136Z,12.53
2018-08-16T00:05:38.696Z,11.40
2018-08-16T00:08:09.289Z,11.17
2018-08-16T00:10:39.929Z,11.37
2018-08-16T00:13:10.541Z,12.20
2018-08-16T00:15:41.131Z,10.20
2018-08-16T00:18:11.733Z,9.33
2018-08-16T00:20:42.317Z,18.70
2018-08-16T00:23:12.703Z,18.33
2018-08-16T00:25:43.205Z,16.43
2018-08-16T00:28:13.559Z,20.73
2018-08-16T00:30:44.045Z,15.37
2018-08-16T00:33:14.437Z,15.10
2018-08-16T00:35:45.082Z,15.73
2018-08-16T00:38:15.687Z,14.60
2018-08-16T00:40:46.508Z,13.73
2018-08-16T00:43:16.953Z,11.97
2018-08-16T00:45:47.331Z,15.37
2018-08-16T00:48:17.707Z,15.83
2018-08-16T00:50:48.279Z,12.27
2018-08-16T00:53:18.796Z,15.80
2018-08-16T00:55:49.478Z,11.47
2018-08-16T00:58:19.965Z,13.47
2018-08-16T01:00:50.736Z,11.40
2018-08-16T01:03:21.337Z,16.53
2018-08-16T01:05:51.746Z,11.43
2018-08-16T01:08:22.176Z,12.83
2018-08-16T01:10:52.730Z,13.83
2018-08-16T01:13:23.275Z,16.57
2018-08-16T01:15:53.878Z,16.50
2018-08-16T01:18:24.572Z,17.80
2018-08-16T01:20:55.209Z,14.20
2018-08-16T01:23:25.561Z,13.00
2018-08-16T01:25:56.139Z,19.83
2018-08-16T01:28:26.590Z,16.33
2018-08-16T01:30:57.088Z,13.47
2018-08-16T01:33:27.654Z,15.77
2018-08-16T01:35:58.235Z,14.87
2018-08-16T01:38:28.748Z,14.60
2018-08-16T01:41:12.279Z,16.97
2018-08-16T01:43:42.878Z,17.17
2018-08-16T01:46:13.507Z,16.87
2018-08-16T01:48:44.060Z,18.50
2018-08-16T01:51:14.615Z,13.37
2018-08-16T01:53:45.305Z,14.50
2018-08-16T01:56:15.852Z,16.83
2018-08-16T01:58:46.231Z,14.43
2018-08-16T02:01:16.715Z,21.53
2018-08-16T02:03:47.226Z,14.87
2018-08-16T02:06:17.828Z,14.30
2018-08-16T02:08:48.388Z,19.40
2018-08-16T02:11:18.960Z,13.97
2018-08-16T02:13:49.575Z,16.10
2018-08-16T02:16:20.148Z,16.50
2018-08-16T02:18:50.697Z,16.33
2018-08-16T02:21:21.204Z,20.97
2018-08-16T02:23:51.657Z,20.73
2018-08-16T02:26:22.013Z,22.33
2018-08-16T02:28:52.647Z,16.60
2018-08-16T02:31:23.113Z,18.47
2018-08-16T02:33:54.099Z,18.03
2018-08-16T02:36:24.811Z,16.83
2018-08-16T02:38:55.491Z,19.07
2018-08-16T02:41:25.915Z,14.53
2018-08-16T02:43:56.387Z,15.27
2018-08-16T02:46:27.028Z,18.40
2018-08-16T02:48:57.383Z,18.90
2018-08-16T02:51:27.938Z,20.13
2018-08-16T02:53:58.405Z,15.23
2018-08-16T02:56:29.022Z,16.40
2018-08-16T02:58:59.761Z,18.63
2018-08-16T03:01:30.321Z,17.07
2018-08-16T03:04:00.952Z,18.23
2018-08-16T03:06:31.198Z,15.70
2018-08-16T03:09:01.700Z,16.50
2018-08-16T03:11:32.110Z,16.53
2018-08-16T03:14:02.704Z,22.37
2018-08-16T03:16:33.273Z,16.20
2018-08-16T03:19:03.676Z,16.63
2018-08-16T03:21:34.260Z,17.83
2018-08-16T03:24:05.029Z,20.97
2018-08-16T03:26:35.536Z,15.87
2018-08-16T03:29:06.415Z,21.93
2018-08-16T03:31:36.903Z,20.10
2018-08-16T03:34:07.380Z,19.67
2018-08-16T03:36:37.971Z,23.97
2018-08-16T03:39:09.926Z,20.20
2018-08-16T03:41:40.352Z,17.77
2018-08-16T03:44:10.723Z,22.60
2018-08-16T03:46:41.288Z,29.00
2018-08-16T03:51:42.731Z,18.90
2018-08-16T03:54:13.259Z,16.53
2018-08-16T03:56:43.756Z,16.63
2018-08-16T03:59:13.975Z,27.73
2018-08-16T04:01:44.415Z,16.83
2018-08-16T04:04:14.976Z,21.40
2018-08-16T04:06:45.376Z,18.20
2018-08-16T04:09:15.844Z,17.60
2018-08-16T04:11:46.215Z,18.40
2018-08-16T04:14:16.566Z,17.57
2018-08-16T04:16:47.046Z,18.80
2018-08-16T04:19:17.542Z,20.90
2018-08-16T04:21:48.004Z,18.63
2018-08-16T04:24:18.390Z,17.67
2018-08-16T04:26:48.751Z,17.30
2018-08-16T04:29:19.073Z,16.87
2018-08-16T04:31:49.603Z,16.13
2018-08-16T04:34:20.112Z,14.27
2018-08-16T04:36:50.745Z,16.93
2018-08-16T04:39:21.124Z,22.77
2018-08-16T04:41:51.548Z,21.43
2018-08-16T04:44:21.580Z,25.43
2018-08-16T04:46:52.237Z,15.93
2018-08-16T04:49:22.818Z,18.13
2018-08-16T04:51:53.378Z,13.67
2018-08-16T04:54:23.986Z,16.23
2018-08-16T04:56:54.850Z,13.87
2018-08-16T04:59:25.423Z,14.40
2018-08-16T05:01:55.863Z,15.10
2018-08-16T05:04:26.339Z,12.80
2018-08-16T05:06:56.965Z,13.10
2018-08-16T05:09:27.506Z,19.10
2018-08-16T05:11:58.008Z,15.70
2018-08-16T05:14:28.774Z,20.83
2018-08-16T05:16:59.377Z,16.33
2018-08-16T05:19:30.065Z,12.83
2018-08-16T05:22:00.647Z,13.60
2018-08-16T05:24:31.051Z,12.33
2018-08-16T05:27:01.505Z,18.20
2018-08-16T05:29:31.974Z,13.60
2018-08-16T05:32:02.619Z,9.57
2018-08-16T05:34:33.172Z,11.53
2018-08-16T05:37:03.671Z,13.67
2018-08-16T05:39:34.316Z,13.43
2018-08-16T05:42:04.922Z,15.13
2018-08-16T05:44:35.496Z,9.50
2018-08-16T05:47:06.409Z,8.90
2018-08-16T05:49:37.092Z,12.53
2018-08-16T05:52:07.563Z,10.80
2018-08-16T05:54:37.904Z,12.97
2018-08-16T05:57:08.314Z,10.83
2018-08-16T05:59:38.857Z,10.27
2018-08-16T06:02:09.588Z,14.10
2018-08-16T06:04:40.251Z,11.70
2018-08-16T06:07:10.748Z,10.20
2018-08-16T06:09:41.364Z,10.50
2018-08-16T06:12:11.942Z,9.40
2018-08-16T06:14:42.303Z,11.63
2018-08-16T06:17:13.602Z,9.87
2018-08-16T06:19:44.184Z,7.80
2018-08-16T06:22:14.790Z,6.60
2018-08-16T06:24:45.451Z,9.80
2018-08-16T06:27:16.176Z,10.40
2018-08-16T06:29:47.020Z,10.23
2018-08-16T06:32:17.723Z,13.03
2018-08-16T06:34:48.283Z,9.03
2018-08-16T06:37:18.910Z,8.80
2018-08-16T06:39:49.588Z,6.27
2018-08-16T06:42:20.065Z,6.43
2018-08-16T06:44:50.746Z,6.47
2018-08-16T06:47:21.116Z,9.50
2018-08-16T06:49:51.600Z,8.10
2018-08-16T06:52:22.090Z,6.10
2018-08-16T06:54:52.647Z,6.23
2018-08-16T06:57:23.159Z,6.80
2018-08-16T06:59:53.710Z,6.93
2018-08-16T07:02:24.259Z,6.50
2018-08-16T07:04:55.079Z,14.67
2018-08-16T07:07:25.610Z,6.67
2018-08-16T07:09:55.916Z,7.10
2018-08-16T07:12:26.437Z,6.30
2018-08-16T07:14:56.875Z,6.20
2018-08-16T07:17:27.509Z,6.83
2018-08-16T07:19:58.052Z,6.53
2018-08-16T07:22:28.629Z,7.27
2018-08-16T07:24:59.226Z,7.20
2018-08-16T07:27:29.830Z,7.73
2018-08-16T07:30:01.402Z,7.67
2018-08-16T07:32:31.877Z,5.80
2018-08-16T07:35:02.489Z,6.53
2018-08-16T07:37:33.161Z,5.97
2018-08-16T07:40:04.114Z,7.33
2018-08-16T07:42:34.528Z,7.53
2018-08-16T07:45:05.528Z,6.17
2018-08-16T07:47:36.125Z,7.37
2018-08-16T07:50:08.785Z,6.33
2018-08-16T07:52:39.995Z,10.57
2018-08-16T07:55:10.985Z,8.30
2018-08-16T07:57:41.497Z,6.43
2018-08-16T08:00:16.769Z,9.73
2018-08-16T08:02:47.708Z,5.83
2018-08-16T08:05:18.220Z,6.43
2018-08-16T08:07:48.736Z,5.40
2018-08-16T08:10:20.418Z,5.40
2018-08-16T08:12:50.921Z,5.97
2018-08-16T08:15:21.406Z,8.50
2018-08-16T08:17:51.921Z,5.20
2018-08-16T08:20:22.423Z,5.80
2018-08-16T08:22:53.054Z,5.67
2018-08-16T08:25:23.507Z,6.33
2018-08-16T08:27:54.122Z,7.70
2018-08-16T08:30:24.813Z,10.80
2018-08-16T08:32:55.331Z,4.90
2018-08-16T08:35:25.970Z,4.53
2018-08-16T08:38:08.556Z,7.17
2018-08-16T08:40:38.966Z,8.30
2018-08-16T08:43:09.806Z,4.40
2018-08-16T08:45:40.175Z,4.77
2018-08-16T08:48:10.789Z,4.77
2018-08-16T08:50:41.380Z,5.80
2018-08-16T08:53:28.320Z,5.33
2018-08-16T08:56:15.090Z,5.17
2018-08-16T08:58:52.594Z,4.50
2018-08-16T09:01:23.141Z,4.50
2018-08-16T09:03:53.671Z,4.20
2018-08-16T09:06:24.246Z,8.97
2018-08-16T09:08:54.703Z,6.47
2018-08-16T09:11:41.732Z,5.10
2018-08-16T09:14:28.741Z,6.03
2018-08-16T09:16:59.243Z,4.53
2018-08-16T09:19:29.685Z,4.93
2018-08-16T09:22:00.413Z,4.00
2018-08-16T09:24:30.877Z,4.40
2018-08-16T09:27:01.348Z,3.70
2018-08-16T09:30:46.966Z,5.60
2018-08-16T09:33:33.776Z,6.13
2018-08-16T09:36:04.024Z,4.73
2018-08-16T09:38:34.725Z,7.13
2018-08-16T09:41:05.295Z,6.70
2018-08-16T09:43:35.807Z,3.73
2018-08-16T09:47:25.847Z,3.60
2018-08-16T09:49:56.167Z,3.63
2018-08-16T09:52:26.713Z,4.00
2018-08-16T09:54:57.486Z,6.80
2018-08-16T09:57:28.103Z,4.97
2018-08-16T09:59:58.694Z,5.23
2018-08-16T10:02:29.192Z,5.60
2018-08-16T10:04:59.870Z,3.53
2018-08-16T10:07:30.353Z,6.20
2018-08-16T10:10:00.625Z,4.73
2018-08-16T10:12:31.186Z,5.20
2018-08-16T10:15:01.673Z,3.33
2018-08-16T10:17:32.179Z,4.00
2018-08-16T10:20:02.880Z,3.00
2018-08-16T10:22:33.471Z,4.07
2018-08-16T10:25:04.132Z,7.90
2018-08-16T10:27:34.681Z,5.87
2018-08-16T10:30:05.839Z,5.43
2018-08-16T10:32:36.347Z,3.37
2018-08-16T10:35:07.349Z,4.03
2018-08-16T10:37:38.527Z,3.30
2018-08-16T10:40:09.100Z,4.53
2018-08-16T10:42:39.677Z,4.80
2018-08-16T10:45:10.178Z,3.57
2018-08-16T10:47:40.749Z,5.20
2018-08-16T10:50:11.283Z,3.30
2018-08-16T10:52:41.719Z,6.00
2018-08-16T10:55:12.210Z,3.13
2018-08-16T10:57:42.693Z,4.13
2018-08-16T11:00:14.211Z,4.33
2018-08-16T11:02:44.789Z,22.50
2018-08-16T11:05:15.382Z,4.73
2018-08-16T11:07:45.966Z,8.33
2018-08-16T11:10:16.310Z,4.30
2018-08-16T11:12:46.818Z,8.63
2018-08-16T11:15:17.282Z,3.03
2018-08-16T11:17:47.796Z,3.37
2018-08-16T11:20:18.447Z,3.70
2018-08-16T11:22:49.132Z,6.63
2018-08-16T11:25:19.684Z,2.87
2018-08-16T11:27:50.144Z,4.07
2018-08-16T11:30:20.565Z,3.63
2018-08-16T11:32:51.099Z,5.60
2018-08-16T11:35:21.529Z,3.23
2018-08-16T11:37:52.085Z,2.67
2018-08-16T11:40:22.480Z,3.03
2018-08-16T11:42:52.814Z,2.40
2018-08-16T11:45:23.328Z,2.60
2018-08-16T11:47:53.879Z,4.37
2018-08-16T11:50:24.515Z,3.00
2018-08-16T11:52:55.091Z,4.17
2018-08-16T11:55:25.688Z,3.00
2018-08-16T11:57:56.267Z,5.20
2018-08-16T12:00:26.967Z,2.43
2018-08-16T12:02:57.605Z,3.27
2018-08-16T12:05:28.148Z,5.83
2018-08-16T12:07:58.620Z,2.40
2018-08-16T12:10:29.190Z,2.60
2018-08-16T12:12:59.625Z,4.20
2018-08-16T12:15:30.050Z,3.20
2018-08-16T12:18:00.690Z,2.60
2018-08-16T12:20:31.261Z,4.40
2018-08-16T12:23:01.763Z,2.90
2018-08-16T12:25:32.432Z,4.83
2018-08-16T12:28:02.917Z,3.83
2018-08-16T12:30:33.131Z,5.20
2018-08-16T12:33:03.609Z,2.83
2018-08-16T12:35:34.079Z,2.97
2018-08-16T12:38:04.590Z,4.90
2018-08-16T12:40:35.346Z,2.73
2018-08-16T12:43:05.745Z,3.20
2018-08-16T12:45:36.213Z,2.37
2018-08-16T12:48:06.742Z,6.80
2018-08-16T12:50:37.302Z,3.17
2018-08-16T12:53:07.845Z,4.00
2018-08-16T12:55:38.373Z,2.70
2018-08-16T12:58:08.821Z,3.87
2018-08-16T13:00:39.569Z,4.60
2018-08-16T13:03:10.220Z,4.73
2018-08-16T13:05:40.888Z,2.87
2018-08-16T13:08:11.347Z,6.27
2018-08-16T13:10:41.795Z,4.33
2018-08-16T13:13:12.384Z,2.63
2018-08-16T13:15:43.012Z,4.10
2018-08-16T13:18:13.584Z,2.77
2018-08-16T13:20:44.140Z,3.70
2018-08-16T13:23:14.780Z,2.77
2018-08-16T13:25:45.397Z,10.53
2018-08-16T13:28:16.357Z,11.73
2018-08-16T13:30:46.964Z,5.03
2018-08-16T13:33:17.567Z,3.40
2018-08-16T13:35:48.142Z,4.93
2018-08-16T13:38:18.700Z,3.63
2018-08-16T13:40:49.391Z,3.67
2018-08-16T13:43:20.168Z,3.27
2018-08-16T13:45:50.765Z,2.87
2018-08-16T13:48:21.339Z,5.10
2018-08-16T13:50:51.734Z,2.93
2018-08-16T13:53:22.267Z,4.80
2018-08-16T13:55:52.772Z,4.40
2018-08-16T13:58:23.322Z,2.70
2018-08-16T14:00:53.817Z,5.20
2018-08-16T14:03:24.294Z,4.07
2018-08-16T14:05:54.783Z,5.70
2018-08-16T14:08:25.061Z,2.60
2018-08-16T14:10:55.431Z,2.60
2018-08-16T14:13:25.935Z,3.30
2018-08-16T14:15:56.549Z,2.67
2018-08-16T14:18:27.147Z,4.03
2018-08-16T14:20:57.743Z,3.10
2018-08-16T14:23:28.344Z,2.87
2018-08-16T14:25:58.902Z,3.80
2018-08-16T14:28:29.464Z,5.90
2018-08-16T14:31:00.021Z,5.53
2018-08-16T14:33:30.402Z,3.43
2018-08-16T14:36:00.705Z,5.10
2018-08-16T14:38:31.323Z,3.63
2018-08-16T14:41:01.806Z,3.00
2018-08-16T14:43:32.458Z,11.37
2018-08-16T14:46:03.044Z,5.07
2018-08-16T14:48:33.720Z,4.57
2018-08-16T14:51:04.169Z,7.87
2018-08-16T14:53:34.524Z,3.67
2018-08-16T14:56:05.073Z,8.27
2018-08-16T14:58:35.545Z,3.20
2018-08-16T15:01:06.160Z,4.20
2018-08-16T15:03:36.728Z,3.97
2018-08-16T15:06:07.300Z,3.83
2018-08-16T15:08:37.935Z,5.93
2018-08-16T15:11:08.616Z,4.40
2018-08-16T15:13:39.151Z,3.63
2018-08-16T15:16:09.810Z,5.70
2018-08-16T15:18:40.493Z,3.90
2018-08-16T15:21:11.146Z,4.97
2018-08-16T15:23:41.752Z,5.80
2018-08-16T15:26:12.358Z,3.53
2018-08-16T15:28:42.851Z,3.00
2018-08-16T15:31:14.230Z,5.70
2018-08-16T15:33:44.831Z,6.93
2018-08-16T15:36:15.460Z,4.30
2018-08-16T15:38:45.826Z,3.23
2018-08-16T15:41:16.474Z,4.23
2018-08-16T15:43:47.006Z,2.97
2018-08-16T15:46:17.560Z,2.97
2018-08-16T15:48:48.228Z,10.63
2018-08-16T15:51:18.775Z,7.23
2018-08-16T15:53:49.406Z,3.23
2018-08-16T15:56:20.099Z,2.93
2018-08-16T15:58:50.658Z,6.07
2018-08-16T16:01:21.362Z,5.30
2018-08-16T16:03:51.941Z,3.20
2018-08-16T16:06:22.672Z,2.30
2018-08-16T16:08:53.238Z,5.03
2018-08-16T16:11:23.845Z,4.77
2018-08-16T16:13:54.246Z,10.03
2018-08-16T16:16:24.512Z,3.50
2018-08-16T16:18:55.473Z,2.80
2018-08-16T16:21:25.977Z,4.23
2018-08-16T16:23:56.635Z,5.03
2018-08-16T16:26:27.362Z,8.47
2018-08-16T16:28:58.120Z,2.50
2018-08-16T16:31:28.980Z,4.50
2018-08-16T16:33:59.800Z,3.30
2018-08-16T16:36:30.398Z,5.80
2018-08-16T16:39:00.980Z,2.97
2018-08-16T16:41:31.437Z,5.73
2018-08-16T16:44:01.724Z,3.83
2018-08-16T16:46:32.239Z,4.20
2018-08-16T16:49:02.707Z,5.60
2018-08-16T16:51:33.289Z,2.60
2018-08-16T16:54:04.030Z,2.70
2018-08-16T16:56:34.627Z,4.47
2018-08-16T16:59:05.220Z,8.40
2018-08-16T17:01:35.824Z,11.33
2018-08-16T17:04:06.309Z,5.87
2018-08-16T17:06:36.878Z,5.87
2018-08-16T17:09:10.378Z,3.27
2018-08-16T17:11:41.337Z,2.73
2018-08-16T17:14:11.844Z,3.93
2018-08-16T17:16:42.322Z,2.90
2018-08-16T17:19:12.751Z,3.17
2018-08-16T17:21:43.358Z,7.67
2018-08-16T17:24:13.928Z,2.57
2018-08-16T17:26:44.428Z,7.43
2018-08-16T17:29:14.981Z,2.80
2018-08-16T17:31:45.587Z,3.30
2018-08-16T17:34:15.981Z,2.60
2018-08-16T17:36:46.414Z,3.00
2018-08-16T17:39:16.947Z,3.13
2018-08-16T17:41:47.533Z,3.23
2018-08-16T17:44:18.107Z,2.40
2018-08-16T17:46:48.603Z,4.53
2018-08-16T17:49:19.543Z,2.83
2018-08-16T17:51:50.102Z,2.50
2018-08-16T17:54:20.889Z,3.17
2018-08-16T17:56:51.492Z,3.87
2018-08-16T17:59:22.110Z,5.33
2018-08-16T18:01:52.559Z,3.53
2018-08-16T18:04:23.039Z,11.77
2018-08-16T18:06:53.441Z,3.97
2018-08-16T18:09:23.893Z,4.10
2018-08-16T18:11:54.456Z,5.83
2018-08-16T18:14:24.864Z,3.83
2018-08-16T18:16:55.111Z,3.73
2018-08-16T18:19:25.530Z,3.43
2018-08-16T18:21:55.974Z,3.67
2018-08-16T18:24:26.566Z,5.13
2018-08-16T18:26:57.061Z,3.50
2018-08-16T18:29:27.551Z,5.40
2018-08-16T18:31:57.948Z,7.43
2018-08-16T18:34:28.310Z,6.03
2018-08-16T18:36:58.890Z,4.73
2018-08-16T18:39:29.372Z,4.37
2018-08-16T18:41:59.810Z,3.70
2018-08-16T18:44:30.236Z,4.40
2018-08-16T18:47:00.492Z,13.70
2018-08-16T18:49:31.002Z,7.03
2018-08-16T18:52:01.555Z,10.70
2018-08-16T18:54:32.154Z,12.23
2018-08-16T18:57:02.709Z,7.63
2018-08-16T18:59:33.057Z,8.63
2018-08-16T19:02:03.643Z,5.30
2018-08-16T19:04:34.600Z,5.50
2018-08-16T19:07:05.132Z,9.80
2018-08-16T19:09:35.454Z,6.10
2018-08-16T19:12:06.084Z,6.50
2018-08-16T19:14:36.642Z,5.90
2018-08-16T19:17:07.345Z,12.17
2018-08-16T19:19:37.809Z,8.20
2018-08-16T19:22:08.357Z,4.27
2018-08-16T19:24:38.852Z,5.10
2018-08-16T19:27:09.364Z,16.97
2018-08-16T19:29:39.861Z,9.00
2018-08-16T19:32:10.358Z,8.23
2018-08-16T19:34:41.321Z,5.30
2018-08-16T19:37:11.832Z,3.80
2018-08-16T19:39:42.393Z,5.90
2018-08-16T19:42:12.935Z,5.13
2018-08-16T19:44:43.485Z,8.23
2018-08-16T19:47:13.866Z,9.70
2018-08-16T19:49:44.352Z,7.10
2018-08-16T19:52:14.898Z,3.90
2018-08-16T19:54:45.272Z,8.17
2018-08-16T19:57:15.853Z,7.50
2018-08-16T19:59:46.285Z,5.17
2018-08-16T20:02:16.806Z,14.50
2018-08-16T20:04:47.200Z,9.97
2018-08-16T20:07:17.655Z,5.03
2018-08-16T20:09:48.157Z,7.40
2018-08-16T20:12:18.739Z,6.00
2018-08-16T20:14:49.176Z,5.80
2018-08-16T20:17:20.316Z,4.57
2018-08-16T20:19:50.730Z,5.00
2018-08-16T20:22:21.743Z,6.33
2018-08-16T20:24:52.276Z,4.50
2018-08-16T20:27:22.851Z,13.43
2018-08-16T20:29:53.437Z,7.43
2018-08-16T20:32:23.904Z,6.60
2018-08-16T20:34:55.060Z,6.43
2018-08-16T20:37:25.796Z,6.17
2018-08-16T20:39:56.387Z,6.10
2018-08-16T20:42:26.872Z,5.80
2018-08-16T20:44:57.125Z,7.17
2018-08-16T20:47:27.705Z,6.00
2018-08-16T20:49:57.903Z,9.33
2018-08-16T20:52:28.482Z,8.40
2018-08-16T20:54:59.040Z,7.53
2018-08-16T20:57:29.673Z,5.47
2018-08-16T21:00:00.296Z,4.90
2018-08-16T21:02:30.808Z,3.87
2018-08-16T21:05:01.090Z,4.40
2018-08-16T21:07:31.457Z,7.03
2018-08-16T21:10:02.031Z,4.40
2018-08-16T21:12:32.645Z,6.57
2018-08-16T21:15:03.066Z,7.70
2018-08-16T21:17:33.708Z,5.53
2018-08-16T21:20:04.279Z,16.07
2018-08-16T21:22:34.634Z,7.53
2018-08-16T21:25:05.486Z,4.73
2018-08-16T21:27:35.907Z,7.73
2018-08-16T21:30:07.679Z,5.80
2018-08-16T21:32:37.976Z,5.17
2018-08-16T21:35:08.455Z,6.37
2018-08-16T21:37:39.014Z,6.00
2018-08-16T21:40:09.567Z,8.10
2018-08-16T21:42:40.024Z,6.33
2018-08-16T21:45:10.588Z,6.33
2018-08-16T21:47:40.993Z,6.70
2018-08-16T21:50:11.432Z,11.47
2018-08-16T21:52:41.844Z,14.43
2018-08-16T21:55:12.306Z,10.73
2018-08-16T21:57:42.750Z,8.50
2018-08-16T22:00:20.727Z,6.20
2018-08-16T22:02:51.538Z,7.80
2018-08-16T22:05:21.752Z,8.80
2018-08-16T22:08:14.512Z,8.23
2018-08-16T22:10:45.138Z,10.03
2018-08-16T22:13:15.516Z,9.73
2018-08-16T22:15:45.925Z,8.73
2018-08-16T22:18:16.473Z,6.83
2018-08-16T22:20:46.976Z,9.50
2018-08-16T22:23:17.555Z,13.90
2018-08-16T22:25:47.983Z,9.27
2018-08-16T22:28:18.405Z,8.53
2018-08-16T22:30:48.904Z,9.40
2018-08-16T22:33:19.451Z,9.40
2018-08-16T22:35:50.132Z,7.90
2018-08-16T22:38:20.699Z,9.23
2018-08-16T22:40:51.105Z,9.43
2018-08-16T22:43:21.568Z,9.67
2018-08-16T22:45:52.071Z,10.70
2018-08-16T22:48:22.466Z,10.90
2018-08-16T22:50:53.089Z,11.07
2018-08-16T22:53:23.478Z,12.27
2018-08-16T22:55:53.956Z,11.43
2018-08-16T22:58:24.608Z,11.87
2018-08-16T23:00:55.200Z,16.47
2018-08-16T23:03:25.674Z,12.53
2018-08-16T23:05:56.066Z,11.50
2018-08-16T23:08:26.387Z,16.33
2018-08-16T23:10:56.866Z,17.50
2018-08-16T23:13:27.380Z,14.60
2018-08-16T23:15:58.122Z,10.47
2018-08-16T23:18:28.577Z,15.63
2018-08-16T23:20:58.939Z,13.20
2018-08-16T23:23:29.340Z,10.90
2018-08-16T23:25:59.781Z,14.37
2018-08-16T23:28:30.332Z,12.23
2018-08-16T23:31:00.603Z,10.73
2018-08-16T23:33:31.007Z,12.87
2018-08-16T23:36:01.653Z,14.57
2018-08-16T23:38:32.171Z,11.30
2018-08-16T23:41:02.748Z,11.70
2018-08-16T23:43:33.250Z,11.40
2018-08-16T23:46:03.719Z,10.57
2018-08-16T23:48:34.190Z,11.23
2018-08-16T23:51:04.779Z,12.60
2018-08-16T23:53:35.370Z,15.53
2018-08-16T23:56:06.079Z,12.80
2018-08-16T23:58:36.637Z,12.30
